createdAt,value
2022-08-20T00:00:51.605Z,0.00
2022-08-20T00:01:51.823Z,0.00
2022-08-20T00:02:51.786Z,0.00
2022-08-20T00:03:53.277Z,0.00
2022-08-20T00:04:51.909Z,0.00
2022-08-20T00:05:51.981Z,0.00
2022-08-20T00:06:52.033Z,0.00
2022-08-20T00:07:52.129Z,0.00
2022-08-20T00:08:52.180Z,0.00
2022-08-20T00:09:52.279Z,0.00
2022-08-20T00:10:55.599Z,0.00
2022-08-20T00:11:52.444Z,0.00
2022-08-20T00:12:52.512Z,0.00
2022-08-20T00:13:52.595Z,0.00
2022-08-20T00:14:52.642Z,0.00
2022-08-20T00:15:52.723Z,0.00
2022-08-20T00:16:52.775Z,0.00
2022-08-20T00:17:52.889Z,0.00
2022-08-20T00:18:52.935Z,0.00
2022-08-20T00:19:53.008Z,0.00
2022-08-20T00:20:53.061Z,0.00
2022-08-20T00:21:53.148Z,0.00
2022-08-20T00:22:53.220Z,0.00
2022-08-20T00:23:53.270Z,0.00
2022-08-20T00:24:53.325Z,0.00
2022-08-20T00:25:53.400Z,0.00
2022-08-20T00:26:53.451Z,0.00
2022-08-20T00:27:53.544Z,0.00
2022-08-20T00:28:53.591Z,0.00
2022-08-20T00:29:53.671Z,0.00
2022-08-20T00:30:53.726Z,0.00
2022-08-20T00:31:53.805Z,0.00
2022-08-20T00:32:53.870Z,0.00
2022-08-20T00:33:53.950Z,0.00
2022-08-20T00:34:54.007Z,0.00
2022-08-20T00:35:54.085Z,0.00
2022-08-20T00:36:54.138Z,0.00
2022-08-20T00:37:57.473Z,0.00
2022-08-20T00:38:54.295Z,0.00
2022-08-20T00:39:54.424Z,0.00
2022-08-20T00:40:54.424Z,0.00
2022-08-20T00:41:54.503Z,0.00
2022-08-20T00:42:54.574Z,0.00
2022-08-20T00:43:54.655Z,0.00
2022-08-20T00:44:54.714Z,0.00
2022-08-20T00:45:54.814Z,0.00
2022-08-20T00:46:54.867Z,0.00
2022-08-20T00:47:55.089Z,0.00
2022-08-20T00:48:55.008Z,0.00
2022-08-20T00:49:55.084Z,0.00
2022-08-20T00:50:55.134Z,0.00
2022-08-20T00:51:55.216Z,0.00
2022-08-20T00:52:55.275Z,0.00
2022-08-20T00:53:55.357Z,0.00
2022-08-20T00:54:55.409Z,0.00
2022-08-20T00:55:55.486Z,0.00
2022-08-20T00:56:55.538Z,0.00
2022-08-20T00:58:00.957Z,0.00
2022-08-20T00:58:55.713Z,0.00
2022-08-20T00:59:55.804Z,0.00
2022-08-20T01:00:55.865Z,0.00
2022-08-20T01:01:56.683Z,0.00
2022-08-20T01:02:57.623Z,0.00
2022-08-20T01:03:56.108Z,0.00
2022-08-20T01:04:56.157Z,0.00
2022-08-20T01:05:56.237Z,0.00
2022-08-20T01:06:56.292Z,0.00
2022-08-20T01:07:56.536Z,0.00
2022-08-20T01:08:56.453Z,0.00
2022-08-20T01:09:59.125Z,0.00
2022-08-20T01:10:56.590Z,0.00
2022-08-20T01:11:56.685Z,0.00
2022-08-20T01:12:59.673Z,0.00
2022-08-20T01:13:56.820Z,0.00
2022-08-20T01:14:56.866Z,0.00
2022-08-20T01:15:56.945Z,0.00
2022-08-20T01:16:56.998Z,0.00
2022-08-20T01:17:57.214Z,0.00
2022-08-20T01:18:57.146Z,0.00
2022-08-20T01:19:57.224Z,0.00
2022-08-20T01:20:57.278Z,0.00
2022-08-20T01:21:57.353Z,0.00
2022-08-20T01:22:57.420Z,0.00
2022-08-20T01:23:57.508Z,0.00
2022-08-20T01:24:57.554Z,0.00
2022-08-20T01:25:57.632Z,0.00
2022-08-20T01:26:57.683Z,0.00
2022-08-20T01:27:58.361Z,0.00
2022-08-20T01:28:58.093Z,0.00
2022-08-20T01:29:57.933Z,0.00
2022-08-20T01:30:57.992Z,0.00
2022-08-20T01:31:58.070Z,0.00
2022-08-20T01:32:58.120Z,0.00
2022-08-20T01:33:58.216Z,0.00
2022-08-20T01:34:58.262Z,0.00
2022-08-20T01:35:58.337Z,0.00
2022-08-20T01:36:58.395Z,0.00
2022-08-20T01:37:58.483Z,0.00
2022-08-20T01:38:58.546Z,0.00
2022-08-20T01:39:58.708Z,0.00
2022-08-20T01:40:58.682Z,0.00
2022-08-20T01:41:58.761Z,0.00
2022-08-20T01:42:59.521Z,0.00
2022-08-20T01:43:58.911Z,0.00
2022-08-20T01:44:58.956Z,0.00
2022-08-20T01:45:59.040Z,0.00
2022-08-20T01:46:59.112Z,0.00
2022-08-20T01:47:59.192Z,0.00
2022-08-20T01:48:59.281Z,0.00
2022-08-20T01:49:59.359Z,0.00
2022-08-20T01:50:59.414Z,0.00
2022-08-20T01:51:59.492Z,0.00
2022-08-20T01:52:59.544Z,0.00
2022-08-20T01:53:59.642Z,0.00
2022-08-20T01:54:59.679Z,0.00
2022-08-20T01:55:59.758Z,0.00
2022-08-20T01:56:59.815Z,0.00
2022-08-20T01:57:59.894Z,0.00
2022-08-20T01:58:59.959Z,0.00
2022-08-20T02:00:00.033Z,0.00
2022-08-20T02:01:00.083Z,0.00
2022-08-20T02:02:00.248Z,0.00
2022-08-20T02:03:00.221Z,0.00
2022-08-20T02:04:00.320Z,0.00
2022-08-20T02:05:00.370Z,0.00
2022-08-20T02:06:00.449Z,0.00
2022-08-20T02:07:00.499Z,0.00
2022-08-20T02:08:00.578Z,0.00
2022-08-20T02:09:00.652Z,0.00
2022-08-20T02:10:00.731Z,0.00
2022-08-20T02:11:00.783Z,0.00
2022-08-20T02:12:00.861Z,0.00
2022-08-20T02:13:00.917Z,0.00
2022-08-20T02:14:01.010Z,0.00
2022-08-20T02:15:01.066Z,0.00
2022-08-20T02:16:01.166Z,0.00
2022-08-20T02:17:01.216Z,0.00
2022-08-20T02:18:01.293Z,0.00
2022-08-20T02:19:01.810Z,0.00
2022-08-20T02:20:01.410Z,0.00
2022-08-20T02:21:01.487Z,0.00
2022-08-20T02:22:01.565Z,0.00
2022-08-20T02:23:01.704Z,0.00
2022-08-20T02:24:01.724Z,0.00
2022-08-20T02:25:01.804Z,0.00
2022-08-20T02:26:01.858Z,0.00
2022-08-20T02:27:01.934Z,0.00
2022-08-20T02:28:02.025Z,0.00
2022-08-20T02:29:02.121Z,0.00
2022-08-20T02:30:02.166Z,0.00
2022-08-20T02:31:02.245Z,0.00
2022-08-20T02:32:32.473Z,0.00
2022-08-20T02:33:02.433Z,0.00
2022-08-20T02:34:21.700Z,0.00
2022-08-20T02:35:02.581Z,0.00
2022-08-20T02:36:02.627Z,0.00
2022-08-20T02:37:02.705Z,0.00
2022-08-20T02:38:02.759Z,0.00
2022-08-20T02:39:02.850Z,0.00
2022-08-20T02:40:02.953Z,0.00
2022-08-20T02:41:02.975Z,0.00
2022-08-20T02:42:03.032Z,0.00
2022-08-20T02:43:03.128Z,0.00
2022-08-20T02:44:03.200Z,0.00
2022-08-20T02:45:03.276Z,0.00
2022-08-20T02:46:03.327Z,0.00
2022-08-20T02:47:03.406Z,0.00
2022-08-20T02:48:03.459Z,0.00
2022-08-20T02:49:03.548Z,0.00
2022-08-20T02:50:03.594Z,0.00
2022-08-20T02:51:03.669Z,0.00
2022-08-20T02:52:03.723Z,0.00
2022-08-20T02:53:03.800Z,0.00
2022-08-20T02:54:03.875Z,0.00
2022-08-20T02:55:03.952Z,0.00
2022-08-20T02:56:04.002Z,0.00
2022-08-20T02:57:04.101Z,0.00
2022-08-20T02:58:04.172Z,0.00
2022-08-20T02:59:04.277Z,0.00
2022-08-20T03:00:04.324Z,0.00
2022-08-20T03:01:04.517Z,0.00
2022-08-20T03:02:04.494Z,0.00
2022-08-20T03:03:04.579Z,0.00
2022-08-20T03:04:04.638Z,0.00
2022-08-20T03:05:04.716Z,0.00
2022-08-20T03:06:04.771Z,0.00
2022-08-20T03:07:04.845Z,0.00
2022-08-20T03:08:04.900Z,0.00
2022-08-20T03:09:05.002Z,0.00
2022-08-20T03:10:05.050Z,0.00
2022-08-20T03:11:05.150Z,0.00
2022-08-20T03:12:05.199Z,0.00
2022-08-20T03:13:05.279Z,0.00
2022-08-20T03:14:05.362Z,0.00
2022-08-20T03:15:05.441Z,0.00
2022-08-20T03:16:05.519Z,0.00
2022-08-20T03:17:05.596Z,0.00
2022-08-20T03:18:05.648Z,0.00
2022-08-20T03:19:05.744Z,0.00
2022-08-20T03:20:05.796Z,0.00
2022-08-20T03:21:05.873Z,0.00
2022-08-20T03:22:05.925Z,0.00
2022-08-20T03:23:06.002Z,0.00
2022-08-20T03:24:06.104Z,0.00
2022-08-20T03:25:06.162Z,0.00
2022-08-20T03:26:06.222Z,0.00
2022-08-20T03:27:06.303Z,0.00
2022-08-20T03:28:06.383Z,0.00
2022-08-20T03:29:06.474Z,0.00
2022-08-20T03:30:06.531Z,0.00
2022-08-20T03:31:06.600Z,0.00
2022-08-20T03:32:07.893Z,0.00
2022-08-20T03:33:06.745Z,0.00
2022-08-20T03:34:06.813Z,0.00
2022-08-20T03:35:06.889Z,0.00
2022-08-20T03:36:06.941Z,0.00
2022-08-20T03:37:07.018Z,0.00
2022-08-20T03:38:07.089Z,0.00
2022-08-20T03:39:07.216Z,0.00
2022-08-20T03:40:07.326Z,0.00
2022-08-20T03:41:07.361Z,0.00
2022-08-20T03:42:07.414Z,0.00
2022-08-20T03:43:07.508Z,0.00
2022-08-20T03:44:07.589Z,0.00
2022-08-20T03:45:07.676Z,0.00
2022-08-20T03:46:07.721Z,0.00
2022-08-20T03:47:07.835Z,0.00
2022-08-20T03:48:07.880Z,0.00
2022-08-20T03:49:07.992Z,0.00
2022-08-20T03:50:08.039Z,0.00
2022-08-20T03:51:08.137Z,0.00
2022-08-20T03:52:08.190Z,0.00
2022-08-20T03:53:08.286Z,0.00
2022-08-20T03:54:08.355Z,0.00
2022-08-20T03:55:08.433Z,0.00
2022-08-20T03:56:08.487Z,0.00
2022-08-20T03:57:12.663Z,0.00
2022-08-20T03:58:08.638Z,0.00
2022-08-20T03:59:08.742Z,4.00
2022-08-20T04:00:08.789Z,4.00
2022-08-20T04:01:32.073Z,0.00
2022-08-20T04:02:08.970Z,4.00
2022-08-20T04:03:09.047Z,8.00
2022-08-20T04:04:12.647Z,8.00
2022-08-20T04:05:09.187Z,8.00
2022-08-20T04:06:09.240Z,8.00
2022-08-20T04:07:09.333Z,12.00
2022-08-20T04:08:09.408Z,12.00
2022-08-20T04:09:10.422Z,12.00
2022-08-20T04:10:09.556Z,12.00
2022-08-20T04:11:09.668Z,16.00
2022-08-20T04:12:09.716Z,20.00
2022-08-20T04:13:09.798Z,24.00
2022-08-20T04:14:11.085Z,28.00
2022-08-20T04:15:09.940Z,28.00
2022-08-20T04:16:11.291Z,32.00
2022-08-20T04:17:10.104Z,36.00
2022-08-20T04:18:10.153Z,36.00
2022-08-20T04:19:10.280Z,44.00
2022-08-20T04:20:10.338Z,48.00
2022-08-20T04:21:10.450Z,64.00
2022-08-20T04:22:10.542Z,76.00
2022-08-20T04:23:10.637Z,92.00
2022-08-20T04:24:22.567Z,112.00
2022-08-20T04:25:10.801Z,124.00
2022-08-20T04:26:10.861Z,144.00
2022-08-20T04:27:10.939Z,164.00
2022-08-20T04:28:10.987Z,180.00
2022-08-20T04:29:11.101Z,196.00
2022-08-20T04:30:11.169Z,204.00
2022-08-20T04:31:11.265Z,200.00
2022-08-20T04:32:11.321Z,192.00
2022-08-20T04:33:11.401Z,192.00
2022-08-20T04:34:11.494Z,200.00
2022-08-20T04:35:11.519Z,220.00
2022-08-20T04:36:11.596Z,240.00
2022-08-20T04:37:16.983Z,252.00
2022-08-20T04:38:11.742Z,252.00
2022-08-20T04:39:11.857Z,256.00
2022-08-20T04:40:11.939Z,256.00
2022-08-20T04:41:22.471Z,252.00
2022-08-20T04:42:12.035Z,264.00
2022-08-20T04:43:12.391Z,264.00
2022-08-20T04:44:12.212Z,268.00
2022-08-20T04:45:12.287Z,272.00
2022-08-20T04:46:12.342Z,264.00
2022-08-20T04:47:12.420Z,256.00
2022-08-20T04:48:15.187Z,260.00
2022-08-20T04:49:12.560Z,268.00
2022-08-20T04:50:12.605Z,256.00
2022-08-20T04:51:12.685Z,244.00
2022-08-20T04:52:12.758Z,232.00
2022-08-20T04:53:12.835Z,244.00
2022-08-20T04:54:12.912Z,264.00
2022-08-20T04:55:12.994Z,248.00
2022-08-20T04:56:13.039Z,232.00
2022-08-20T04:57:13.118Z,248.00
2022-08-20T04:58:13.185Z,228.00
2022-08-20T04:59:13.277Z,204.00
2022-08-20T05:00:13.322Z,176.00
2022-08-20T05:01:13.443Z,156.00
2022-08-20T05:02:13.479Z,156.00
2022-08-20T05:03:13.571Z,164.00
2022-08-20T05:04:13.676Z,184.00
2022-08-20T05:05:13.753Z,216.00
2022-08-20T05:06:13.823Z,240.00
2022-08-20T05:07:13.901Z,252.00
2022-08-20T05:08:19.951Z,272.00
2022-08-20T05:09:14.085Z,304.00
2022-08-20T05:10:14.132Z,340.00
2022-08-20T05:11:33.549Z,380.00
2022-08-20T05:12:14.270Z,408.00
2022-08-20T05:13:14.348Z,432.00
2022-08-20T05:14:14.427Z,476.00
2022-08-20T05:15:14.503Z,508.00
2022-08-20T05:16:14.592Z,552.00
2022-08-20T05:17:14.701Z,612.00
2022-08-20T05:18:14.745Z,656.00
2022-08-20T05:19:14.852Z,652.00
2022-08-20T05:20:14.899Z,648.00
2022-08-20T05:21:15.521Z,692.00
2022-08-20T05:22:15.032Z,724.00
2022-08-20T05:23:15.110Z,748.00
2022-08-20T05:24:15.180Z,812.00
2022-08-20T05:25:15.256Z,880.00
2022-08-20T05:26:15.307Z,788.00
2022-08-20T05:27:24.677Z,736.00
2022-08-20T05:28:15.450Z,832.00
2022-08-20T05:29:15.565Z,1052.00
2022-08-20T05:30:15.614Z,1308.00
2022-08-20T05:31:15.702Z,1636.00
2022-08-20T05:32:15.754Z,1884.00
2022-08-20T05:33:15.832Z,2184.00
2022-08-20T05:34:16.024Z,2472.00
2022-08-20T05:35:15.984Z,2712.00
2022-08-20T05:36:16.039Z,2964.00
2022-08-20T05:37:16.126Z,3224.00
2022-08-20T05:38:16.201Z,3356.00
2022-08-20T05:39:16.333Z,3516.00
2022-08-20T05:40:16.500Z,3728.00
2022-08-20T05:41:27.598Z,4164.00
2022-08-20T05:42:16.524Z,4816.00
2022-08-20T05:43:16.700Z,5776.00
2022-08-20T05:44:16.818Z,6244.00
2022-08-20T05:45:16.740Z,6400.00
2022-08-20T05:46:16.789Z,7368.00
2022-08-20T05:47:16.870Z,8672.00
2022-08-20T05:48:16.945Z,9208.00
2022-08-20T05:49:17.041Z,8388.00
2022-08-20T05:50:23.266Z,8080.00
2022-08-20T05:51:17.186Z,8096.00
2022-08-20T05:52:17.254Z,7472.00
2022-08-20T05:53:17.334Z,6888.00
2022-08-20T05:54:17.439Z,6940.00
2022-08-20T05:55:17.514Z,7104.00
2022-08-20T05:56:17.605Z,6856.00
2022-08-20T05:57:17.685Z,6152.00
2022-08-20T05:58:17.742Z,5364.00
2022-08-20T05:59:22.214Z,4804.00
2022-08-20T06:00:17.872Z,4268.00
2022-08-20T06:01:18.004Z,4116.00
2022-08-20T06:02:18.025Z,3584.00
2022-08-20T06:03:18.126Z,2704.00
2022-08-20T06:04:18.199Z,2256.00
2022-08-20T06:05:18.270Z,2388.00
2022-08-20T06:06:44.508Z,2812.00
2022-08-20T06:07:18.455Z,3164.00
2022-08-20T06:08:18.506Z,3352.00
2022-08-20T06:09:31.220Z,3296.00
2022-08-20T06:10:18.650Z,3176.00
2022-08-20T06:11:18.726Z,3360.00
2022-08-20T06:12:18.816Z,3512.00
2022-08-20T06:13:18.892Z,3500.00
2022-08-20T06:14:18.973Z,3424.00
2022-08-20T06:15:19.033Z,3396.00
2022-08-20T06:16:19.083Z,3480.00
2022-08-20T06:17:19.177Z,3704.00
2022-08-20T06:18:28.374Z,3872.00
2022-08-20T06:19:24.947Z,4060.00
2022-08-20T06:20:19.403Z,4260.00
2022-08-20T06:21:19.492Z,4416.00
2022-08-20T06:22:25.283Z,4468.00
2022-08-20T06:23:19.648Z,4628.00
2022-08-20T06:24:19.715Z,4712.00
2022-08-20T06:25:19.776Z,4904.00
2022-08-20T06:26:24.811Z,4864.00
2022-08-20T06:27:19.927Z,4572.00
2022-08-20T06:28:19.977Z,4664.00
2022-08-20T06:29:20.073Z,4624.00
2022-08-20T06:30:20.123Z,4472.00
2022-08-20T06:31:20.208Z,4388.00
2022-08-20T06:32:21.216Z,4276.00
2022-08-20T06:33:20.357Z,4132.00
2022-08-20T06:34:20.452Z,4120.00
2022-08-20T06:35:20.499Z,4132.00
2022-08-20T06:36:20.601Z,4180.00
2022-08-20T06:37:20.655Z,4268.00
2022-08-20T06:38:20.737Z,4380.00
2022-08-20T06:39:20.815Z,4596.00
2022-08-20T06:40:21.010Z,4960.00
2022-08-20T06:41:20.935Z,5396.00
2022-08-20T06:42:21.201Z,5728.00
2022-08-20T06:43:21.081Z,6064.00
2022-08-20T06:44:21.233Z,6432.00
2022-08-20T06:45:21.231Z,6684.00
2022-08-20T06:46:21.310Z,6824.00
2022-08-20T06:47:21.409Z,7188.00
2022-08-20T06:48:21.482Z,7332.00
2022-08-20T06:49:21.593Z,7468.00
2022-08-20T06:50:21.629Z,7548.00
2022-08-20T06:51:21.691Z,7268.00
2022-08-20T06:52:37.758Z,7172.00
2022-08-20T06:53:21.860Z,7260.00
2022-08-20T06:54:21.980Z,7580.00
2022-08-20T06:55:22.017Z,8016.00
2022-08-20T06:56:22.097Z,8304.00
2022-08-20T06:57:22.184Z,8604.00
2022-08-20T06:58:37.964Z,8788.00
2022-08-20T06:59:22.375Z,8988.00
2022-08-20T07:00:22.417Z,9484.00
2022-08-20T07:01:22.531Z,10308.00
2022-08-20T07:02:22.568Z,11328.00
2022-08-20T07:03:22.632Z,13168.00
2022-08-20T07:04:22.751Z,21408.00
2022-08-20T07:05:22.813Z,22688.00
2022-08-20T07:06:22.885Z,18112.00
2022-08-20T07:07:22.965Z,19296.00
2022-08-20T07:08:23.040Z,19296.00
2022-08-20T07:09:23.138Z,19168.00
2022-08-20T07:10:23.216Z,22336.00
2022-08-20T07:11:27.734Z,42048.00
2022-08-20T07:12:23.366Z,51904.00
2022-08-20T07:13:23.448Z,24576.00
2022-08-20T07:14:23.583Z,67360.00
2022-08-20T07:15:23.628Z,72896.00
2022-08-20T07:16:23.703Z,90272.00
2022-08-20T07:17:24.294Z,28928.00
2022-08-20T07:18:27.930Z,57600.00
2022-08-20T07:19:23.951Z,92448.00
2022-08-20T07:20:24.064Z,91968.00
2022-08-20T07:21:24.092Z,26464.00
2022-08-20T07:22:24.188Z,95616.00
2022-08-20T07:23:24.263Z,87264.00
2022-08-20T07:24:24.369Z,53280.00
2022-08-20T07:25:24.398Z,96352.00
2022-08-20T07:26:24.471Z,95296.00
2022-08-20T07:27:24.557Z,96960.00
2022-08-20T07:28:24.673Z,98240.00
2022-08-20T07:29:24.743Z,95424.00
2022-08-20T07:30:24.809Z,95648.00
2022-08-20T07:31:24.896Z,97472.00
2022-08-20T07:32:26.177Z,98304.00
2022-08-20T07:33:25.070Z,96288.00
2022-08-20T07:34:25.176Z,96032.00
2022-08-20T07:35:25.216Z,93824.00
2022-08-20T07:36:25.309Z,95104.00
2022-08-20T07:37:25.388Z,99008.00
2022-08-20T07:38:25.473Z,97248.00
2022-08-20T07:39:25.532Z,34912.00
2022-08-20T07:40:26.414Z,98208.00
2022-08-20T07:41:25.679Z,94624.00
2022-08-20T07:42:25.760Z,27232.00
2022-08-20T07:43:25.841Z,27648.00
2022-08-20T07:44:30.793Z,46272.00
2022-08-20T07:45:26.013Z,28032.00
2022-08-20T07:46:31.140Z,30240.00
2022-08-20T07:47:26.148Z,62048.00
2022-08-20T07:48:31.254Z,43936.00
2022-08-20T07:49:26.309Z,47520.00
2022-08-20T07:50:26.363Z,35264.00
2022-08-20T07:51:26.435Z,32096.00
2022-08-20T07:52:26.535Z,34784.00
2022-08-20T07:53:26.623Z,24192.00
2022-08-20T07:54:26.710Z,40640.00
2022-08-20T07:55:26.781Z,38304.00
2022-08-20T07:56:27.972Z,102784.00
2022-08-20T07:57:26.965Z,34080.00
2022-08-20T07:58:27.700Z,23136.00
2022-08-20T07:59:27.174Z,18976.00
2022-08-20T08:00:27.213Z,22880.00
2022-08-20T08:01:27.378Z,28672.00
2022-08-20T08:02:27.375Z,52096.00
2022-08-20T08:03:39.845Z,62368.00
2022-08-20T08:04:27.526Z,46016.00
2022-08-20T08:05:27.599Z,22528.00
2022-08-20T08:06:29.503Z,26368.00
2022-08-20T08:07:27.779Z,101984.00
2022-08-20T08:08:27.832Z,97856.00
2022-08-20T08:09:27.925Z,99072.00
2022-08-20T08:10:27.973Z,102592.00
2022-08-20T08:11:28.057Z,104544.00
2022-08-20T08:12:28.110Z,95968.00
2022-08-20T08:13:28.187Z,29408.00
2022-08-20T08:14:28.278Z,21248.00
2022-08-20T08:15:28.358Z,90752.00
2022-08-20T08:16:28.444Z,89920.00
2022-08-20T08:17:28.527Z,86944.00
2022-08-20T08:18:31.783Z,86016.00
2022-08-20T08:19:28.706Z,84416.00
2022-08-20T08:20:28.746Z,55840.00
2022-08-20T08:21:28.853Z,26304.00
2022-08-20T08:22:28.928Z,67392.00
2022-08-20T08:23:31.633Z,86080.00
2022-08-20T08:24:29.130Z,84160.00
2022-08-20T08:25:29.213Z,79328.00
2022-08-20T08:26:29.313Z,78272.00
2022-08-20T08:27:29.398Z,31104.00
2022-08-20T08:28:29.447Z,77280.00
2022-08-20T08:29:29.554Z,49120.00
2022-08-20T08:30:29.597Z,67456.00
2022-08-20T08:31:29.675Z,40288.00
2022-08-20T08:32:29.764Z,62048.00
2022-08-20T08:33:29.841Z,23392.00
2022-08-20T08:34:29.909Z,18464.00
2022-08-20T08:35:30.001Z,86656.00
2022-08-20T08:36:30.049Z,87072.00
2022-08-20T08:37:30.995Z,86528.00
2022-08-20T08:38:30.209Z,85728.00
2022-08-20T08:39:31.776Z,83584.00
2022-08-20T08:40:30.355Z,82784.00
2022-08-20T08:41:30.430Z,79936.00
2022-08-20T08:42:30.518Z,79616.00
2022-08-20T08:43:31.200Z,79520.00
2022-08-20T08:44:30.685Z,80640.00
2022-08-20T08:45:30.742Z,82592.00
2022-08-20T08:46:30.817Z,83872.00
2022-08-20T08:47:30.890Z,79392.00
2022-08-20T08:48:30.979Z,80992.00
2022-08-20T08:49:33.913Z,79936.00
2022-08-20T08:50:53.610Z,79328.00
2022-08-20T08:51:31.211Z,81504.00
2022-08-20T08:52:31.416Z,84864.00
2022-08-20T08:53:31.375Z,82752.00
2022-08-20T08:54:31.482Z,81632.00
2022-08-20T08:55:31.539Z,79520.00
2022-08-20T08:56:31.607Z,83200.00
2022-08-20T08:57:31.682Z,78176.00
2022-08-20T08:58:31.767Z,75616.00
2022-08-20T08:59:56.188Z,71296.00
2022-08-20T09:00:31.922Z,72384.00
2022-08-20T09:01:55.539Z,75392.00
2022-08-20T09:02:32.183Z,71264.00
2022-08-20T09:03:32.134Z,34112.00
2022-08-20T09:04:32.236Z,32736.00
2022-08-20T09:05:32.297Z,25376.00
2022-08-20T09:06:32.348Z,43424.00
2022-08-20T09:07:32.443Z,66336.00
2022-08-20T09:08:32.511Z,74688.00
2022-08-20T09:09:32.615Z,39360.00
2022-08-20T09:10:32.659Z,82304.00
2022-08-20T09:11:32.734Z,56512.00
2022-08-20T09:12:32.811Z,49856.00
2022-08-20T09:13:32.901Z,49664.00
2022-08-20T09:14:32.998Z,31424.00
2022-08-20T09:15:33.071Z,26496.00
2022-08-20T09:16:53.081Z,21760.00
2022-08-20T09:17:33.246Z,18688.00
2022-08-20T09:18:33.287Z,19968.00
2022-08-20T09:19:33.403Z,22720.00
2022-08-20T09:20:33.435Z,28352.00
2022-08-20T09:21:33.542Z,44416.00
2022-08-20T09:22:33.623Z,33664.00
2022-08-20T09:23:33.700Z,58432.00
2022-08-20T09:24:33.792Z,35360.00
2022-08-20T09:25:33.870Z,36448.00
2022-08-20T09:26:38.564Z,35264.00
2022-08-20T09:27:34.036Z,40480.00
2022-08-20T09:28:35.115Z,69248.00
2022-08-20T09:29:34.417Z,61376.00
2022-08-20T09:30:34.261Z,29056.00
2022-08-20T09:31:34.361Z,22528.00
2022-08-20T09:32:34.444Z,19040.00
2022-08-20T09:33:34.547Z,18208.00
2022-08-20T09:34:34.656Z,18432.00
2022-08-20T09:35:34.728Z,19552.00
2022-08-20T09:36:34.782Z,21504.00
2022-08-20T09:37:37.490Z,76096.00
2022-08-20T09:38:34.934Z,69664.00
2022-08-20T09:39:35.184Z,34944.00
2022-08-20T09:40:35.099Z,25120.00
2022-08-20T09:41:35.206Z,23744.00
2022-08-20T09:42:40.754Z,22656.00
2022-08-20T09:43:35.404Z,65664.00
2022-08-20T09:44:35.494Z,68544.00
2022-08-20T09:45:35.573Z,30912.00
2022-08-20T09:46:35.646Z,68608.00
2022-08-20T09:47:35.717Z,71232.00
2022-08-20T09:48:35.786Z,68416.00
2022-08-20T09:49:35.893Z,71552.00
2022-08-20T09:50:35.914Z,58432.00
2022-08-20T09:51:35.995Z,22336.00
2022-08-20T09:52:40.236Z,62272.00
2022-08-20T09:53:36.137Z,20928.00
2022-08-20T09:54:36.234Z,27776.00
2022-08-20T09:55:36.320Z,20064.00
2022-08-20T09:56:36.406Z,67488.00
2022-08-20T09:57:36.487Z,21760.00
2022-08-20T09:58:36.558Z,18368.00
2022-08-20T09:59:36.652Z,28864.00
2022-08-20T10:00:36.708Z,64160.00
2022-08-20T10:01:36.869Z,42976.00
2022-08-20T10:02:36.852Z,60224.00
2022-08-20T10:03:36.928Z,58784.00
2022-08-20T10:04:37.017Z,55744.00
2022-08-20T10:05:37.097Z,60576.00
2022-08-20T10:06:37.869Z,39200.00
2022-08-20T10:07:37.249Z,33408.00
2022-08-20T10:08:37.296Z,13980.00
2022-08-20T10:09:37.502Z,13548.00
2022-08-20T10:10:37.438Z,14108.00
2022-08-20T10:11:37.512Z,14576.00
2022-08-20T10:12:37.595Z,14172.00
2022-08-20T10:13:37.703Z,13048.00
2022-08-20T10:14:37.796Z,12472.00
2022-08-20T10:15:37.877Z,12372.00
2022-08-20T10:16:37.930Z,12212.00
2022-08-20T10:17:38.009Z,11820.00
2022-08-20T10:18:38.053Z,12164.00
2022-08-20T10:19:38.185Z,13952.00
2022-08-20T10:20:38.227Z,13796.00
2022-08-20T10:21:39.256Z,15160.00
2022-08-20T10:22:38.381Z,16484.00
2022-08-20T10:23:38.455Z,47744.00
2022-08-20T10:24:38.555Z,48128.00
2022-08-20T10:25:38.615Z,46144.00
2022-08-20T10:26:38.703Z,44288.00
2022-08-20T10:27:38.801Z,43232.00
2022-08-20T10:28:38.874Z,21248.00
2022-08-20T10:29:38.970Z,36576.00
2022-08-20T10:30:39.019Z,42624.00
2022-08-20T10:31:39.119Z,41376.00
2022-08-20T10:32:39.185Z,40000.00
2022-08-20T10:33:39.278Z,40864.00
2022-08-20T10:34:39.389Z,28960.00
2022-08-20T10:35:39.464Z,16832.00
2022-08-20T10:36:39.548Z,15756.00
2022-08-20T10:37:39.660Z,37024.00
2022-08-20T10:38:39.712Z,37248.00
2022-08-20T10:39:39.880Z,23744.00
2022-08-20T10:40:39.894Z,35488.00
2022-08-20T10:41:39.969Z,23328.00
2022-08-20T10:42:42.646Z,31392.00
2022-08-20T10:43:40.131Z,12468.00
2022-08-20T10:44:40.225Z,31392.00
2022-08-20T10:45:40.432Z,23168.00
2022-08-20T10:46:40.364Z,31744.00
2022-08-20T10:47:40.480Z,32768.00
2022-08-20T10:48:40.548Z,16832.00
2022-08-20T10:49:40.654Z,18784.00
2022-08-20T10:50:40.708Z,33536.00
2022-08-20T10:51:40.794Z,32256.00
2022-08-20T10:52:40.866Z,18816.00
2022-08-20T10:53:40.950Z,17568.00
2022-08-20T10:54:41.036Z,17344.00
2022-08-20T10:55:41.076Z,24512.00
2022-08-20T10:56:41.152Z,29888.00
2022-08-20T10:57:41.205Z,27776.00
2022-08-20T10:58:41.321Z,23744.00
2022-08-20T10:59:41.348Z,20960.00
2022-08-20T11:00:41.429Z,19616.00
2022-08-20T11:01:41.610Z,16388.00
2022-08-20T11:02:41.592Z,15412.00
2022-08-20T11:03:41.675Z,15668.00
2022-08-20T11:04:41.805Z,14972.00
2022-08-20T11:05:41.844Z,17344.00
2022-08-20T11:06:41.955Z,16768.00
2022-08-20T11:07:52.815Z,15480.00
2022-08-20T11:08:42.116Z,14648.00
2022-08-20T11:09:42.214Z,14160.00
2022-08-20T11:10:42.265Z,12832.00
2022-08-20T11:11:42.349Z,13220.00
2022-08-20T11:12:44.793Z,13284.00
2022-08-20T11:13:42.503Z,13248.00
2022-08-20T11:14:42.590Z,13960.00
2022-08-20T11:15:42.633Z,11836.00
2022-08-20T11:16:42.727Z,12868.00
2022-08-20T11:17:42.807Z,16480.00
2022-08-20T11:18:46.887Z,16928.00
2022-08-20T11:19:42.962Z,16800.00
2022-08-20T11:20:43.041Z,15872.00
2022-08-20T11:21:43.122Z,14872.00
2022-08-20T11:22:43.202Z,14272.00
2022-08-20T11:23:43.281Z,13972.00
2022-08-20T11:24:43.363Z,14152.00
2022-08-20T11:25:43.431Z,15436.00
2022-08-20T11:26:43.504Z,16448.00
2022-08-20T11:27:43.585Z,14700.00
2022-08-20T11:28:43.658Z,17888.00
2022-08-20T11:29:43.756Z,17408.00
2022-08-20T11:30:43.848Z,14684.00
2022-08-20T11:31:43.931Z,15412.00
2022-08-20T11:32:44.006Z,15096.00
2022-08-20T11:33:44.085Z,15764.00
2022-08-20T11:34:44.198Z,16160.00
2022-08-20T11:35:49.152Z,15776.00
2022-08-20T11:36:44.359Z,15412.00
2022-08-20T11:37:44.430Z,15188.00
2022-08-20T11:38:44.543Z,14636.00
2022-08-20T11:39:44.697Z,13948.00
2022-08-20T11:40:44.704Z,12636.00
2022-08-20T11:41:46.897Z,14824.00
2022-08-20T11:43:11.136Z,15824.00
2022-08-20T11:43:59.545Z,17984.00
2022-08-20T11:44:45.009Z,18688.00
2022-08-20T11:45:45.051Z,17216.00
2022-08-20T11:46:45.128Z,14044.00
2022-08-20T11:47:45.211Z,12304.00
2022-08-20T11:48:45.287Z,14420.00
2022-08-20T11:49:45.383Z,14084.00
2022-08-20T11:50:45.460Z,13652.00
2022-08-20T11:51:49.722Z,13420.00
2022-08-20T11:52:45.616Z,12916.00
2022-08-20T11:53:45.700Z,13316.00
2022-08-20T11:54:45.805Z,13516.00
2022-08-20T11:55:45.851Z,13020.00
2022-08-20T11:56:46.265Z,12424.00
2022-08-20T11:57:45.990Z,12084.00
2022-08-20T11:58:46.066Z,10048.00
2022-08-20T11:59:46.153Z,11472.00
2022-08-20T12:00:46.233Z,11464.00
2022-08-20T12:01:46.526Z,11572.00
2022-08-20T12:02:46.464Z,11524.00
2022-08-20T12:03:46.481Z,11416.00
2022-08-20T12:04:46.589Z,10976.00
2022-08-20T12:05:46.635Z,11336.00
2022-08-20T12:06:46.722Z,11160.00
2022-08-20T12:07:46.808Z,11076.00
2022-08-20T12:08:46.900Z,11604.00
2022-08-20T12:09:50.799Z,12044.00
2022-08-20T12:10:47.061Z,11180.00
2022-08-20T12:11:47.146Z,12160.00
2022-08-20T12:12:47.218Z,12164.00
2022-08-20T12:13:49.244Z,12292.00
2022-08-20T12:14:47.397Z,12076.00
2022-08-20T12:15:47.436Z,11908.00
2022-08-20T12:16:47.509Z,10824.00
2022-08-20T12:17:47.593Z,11612.00
2022-08-20T12:18:47.666Z,11012.00
2022-08-20T12:19:47.769Z,10600.00
2022-08-20T12:20:47.843Z,10592.00
2022-08-20T12:21:47.927Z,10352.00
2022-08-20T12:22:48.028Z,9732.00